createdAt,value
2023-05-23T00:02:15.660Z,100859.06
2023-05-23T00:04:43.003Z,100856.31
2023-05-23T00:07:10.208Z,100857.53
2023-05-23T00:09:36.732Z,100850.03
2023-05-23T00:12:03.286Z,100854.91
2023-05-23T00:14:33.874Z,100855.31
2023-05-23T00:17:01.535Z,100859.50
2023-05-23T00:19:28.419Z,100869.53
2023-05-23T00:21:58.522Z,100864.47
2023-05-23T00:24:25.393Z,100854.63
2023-05-23T00:26:52.040Z,100858.16
2023-05-23T00:29:18.563Z,100865.84
2023-05-23T00:31:46.796Z,100863.41
2023-05-23T00:34:15.471Z,100852.88
2023-05-23T00:36:43.625Z,100850.03
2023-05-23T00:39:19.146Z,100853.47
2023-05-23T00:41:51.429Z,100858.16
2023-05-23T00:44:20.289Z,100864.81
2023-05-23T00:46:52.343Z,100874.00
2023-05-23T00:49:20.426Z,100870.19
2023-05-23T00:51:49.425Z,100865.25
2023-05-23T00:54:21.217Z,100869.88
2023-05-23T00:56:48.670Z,100878.00
2023-05-23T00:59:16.051Z,100875.25
2023-05-23T01:01:46.617Z,100882.38
2023-05-23T01:04:14.281Z,100877.59
2023-05-23T01:06:40.738Z,100885.28
2023-05-23T01:09:08.075Z,100887.72
2023-05-23T01:11:58.697Z,100887.59
2023-05-23T01:14:42.406Z,100887.91
2023-05-23T01:17:18.642Z,100890.84
2023-05-23T01:20:09.073Z,100890.72
2023-05-23T01:23:00.290Z,100882.28
2023-05-23T01:25:50.305Z,100885.91
2023-05-23T01:28:20.416Z,100887.16
2023-05-23T01:30:51.959Z,100894.56
2023-05-23T01:33:20.759Z,100899.66
2023-05-23T01:35:47.590Z,100895.00
2023-05-23T01:38:14.781Z,100905.06
2023-05-23T01:40:41.211Z,100903.94
2023-05-23T01:43:10.531Z,100900.63
2023-05-23T01:45:37.335Z,100903.66
2023-05-23T01:48:06.114Z,100903.00
2023-05-23T01:50:33.385Z,100905.41
2023-05-23T01:53:00.907Z,100905.47
2023-05-23T01:55:28.375Z,100899.50
2023-05-23T01:57:59.503Z,100906.38
2023-05-23T02:00:26.161Z,100908.06
2023-05-23T02:02:52.991Z,100908.78
2023-05-23T02:05:19.582Z,100910.94
2023-05-23T02:07:46.342Z,100907.06
2023-05-23T02:10:12.816Z,100912.22
2023-05-23T02:12:39.523Z,100908.69
2023-05-23T02:15:07.678Z,100904.09
2023-05-23T02:17:34.266Z,100908.00
2023-05-23T02:20:00.766Z,100917.88
2023-05-23T02:22:27.297Z,100911.84
2023-05-23T02:24:53.975Z,100912.53
2023-05-23T02:27:20.680Z,100916.81
2023-05-23T02:29:47.504Z,100910.63
2023-05-23T02:32:14.069Z,100903.28
2023-05-23T02:34:40.878Z,100911.78
2023-05-23T02:37:07.933Z,100920.31
2023-05-23T02:39:36.728Z,100909.41
2023-05-23T02:42:04.712Z,100914.06
2023-05-23T02:44:32.005Z,100918.63
2023-05-23T02:46:58.491Z,100918.28
2023-05-23T02:49:25.061Z,100912.28
2023-05-23T02:51:51.875Z,100914.00
2023-05-23T02:54:18.437Z,100915.38
2023-05-23T02:56:46.582Z,100917.06
2023-05-23T02:59:13.606Z,100908.28
2023-05-23T03:01:40.095Z,100913.94
2023-05-23T03:04:07.847Z,100911.56
2023-05-23T03:06:37.058Z,100908.09
2023-05-23T03:09:03.996Z,100908.34
2023-05-23T03:11:30.717Z,100905.88
2023-05-23T03:13:59.320Z,100908.53
2023-05-23T03:16:26.104Z,100903.06
2023-05-23T03:18:53.025Z,100905.66
2023-05-23T03:21:19.673Z,100901.59
2023-05-23T03:23:46.500Z,100901.44
2023-05-23T03:26:13.099Z,100899.28
2023-05-23T03:28:39.754Z,100898.41
2023-05-23T03:31:06.376Z,100897.66
2023-05-23T03:33:33.574Z,100891.88
2023-05-23T03:36:00.314Z,100892.94
2023-05-23T03:38:28.162Z,100897.69
2023-05-23T03:40:54.786Z,100894.75
2023-05-23T03:43:21.786Z,100884.97
2023-05-23T03:45:48.940Z,100885.50
2023-05-23T03:48:17.648Z,100878.66
2023-05-23T03:50:44.791Z,100881.94
2023-05-23T03:53:12.262Z,100883.31
2023-05-23T03:55:39.491Z,100884.38
2023-05-23T03:58:06.419Z,100888.75
2023-05-23T04:00:33.249Z,100896.69
2023-05-23T04:03:02.214Z,100898.03
2023-05-23T04:05:29.854Z,100902.88
2023-05-23T04:07:57.172Z,100906.56
2023-05-23T04:10:24.186Z,100907.63
2023-05-23T04:12:51.863Z,100910.41
2023-05-23T04:15:22.433Z,100904.63
2023-05-23T04:17:53.227Z,100909.22
2023-05-23T04:20:20.407Z,100911.69
2023-05-23T04:22:47.448Z,100912.72
2023-05-23T04:25:14.305Z,100908.72
2023-05-23T04:27:48.972Z,100911.22
2023-05-23T04:30:17.786Z,100914.75
2023-05-23T04:32:44.688Z,100908.94
2023-05-23T04:35:14.270Z,100914.22
2023-05-23T04:37:42.420Z,100911.84
2023-05-23T04:40:09.793Z,100917.81
2023-05-23T04:42:46.699Z,100916.44
2023-05-23T04:45:24.533Z,100917.34
2023-05-23T04:47:59.434Z,100905.13
2023-05-23T04:50:40.512Z,100919.56
2023-05-23T04:53:07.017Z,100915.28
2023-05-23T04:55:34.390Z,100909.41
2023-05-23T04:58:01.296Z,100913.59
2023-05-23T05:00:28.247Z,100911.63
2023-05-23T05:02:54.785Z,100910.75
2023-05-23T05:05:24.949Z,100913.94
2023-05-23T05:07:51.804Z,100917.81
2023-05-23T05:10:18.325Z,100919.47
2023-05-23T05:12:46.899Z,100919.47
2023-05-23T05:15:14.177Z,100921.22
2023-05-23T05:17:43.970Z,100916.59
2023-05-23T05:20:12.662Z,100915.19
2023-05-23T05:22:40.457Z,100918.94
2023-05-23T05:25:08.306Z,100912.25
2023-05-23T05:27:35.275Z,100919.84
2023-05-23T05:30:07.636Z,100913.25
2023-05-23T05:32:46.353Z,100913.16
2023-05-23T05:35:16.861Z,100921.16
2023-05-23T05:37:44.866Z,100917.81
2023-05-23T05:40:12.580Z,100916.22
2023-05-23T05:42:42.056Z,100923.34
2023-05-23T05:45:11.462Z,100926.00
2023-05-23T05:47:39.313Z,100918.94
2023-05-23T05:50:08.441Z,100925.09
2023-05-23T05:52:39.746Z,100927.81
2023-05-23T05:55:08.154Z,100928.94
2023-05-23T05:57:38.539Z,100936.28
2023-05-23T06:00:14.991Z,100931.41
2023-05-23T06:02:54.935Z,100940.44
2023-05-23T06:05:40.396Z,100941.31
2023-05-23T06:08:07.486Z,100941.81
2023-05-23T06:10:34.279Z,100960.38
2023-05-23T06:13:02.609Z,100949.69
2023-05-23T06:15:30.402Z,100946.34
2023-05-23T06:17:56.912Z,100955.13
2023-05-23T06:20:24.284Z,100949.72
2023-05-23T06:22:51.902Z,100948.19
2023-05-23T06:25:18.511Z,100956.38
2023-05-23T06:27:47.723Z,100952.03
2023-05-23T06:30:14.766Z,100956.69
2023-05-23T06:32:41.390Z,100965.75
2023-05-23T06:35:08.330Z,100971.50
2023-05-23T06:37:35.099Z,100964.44
2023-05-23T06:40:02.444Z,100973.19
2023-05-23T06:42:29.289Z,100978.13
2023-05-23T06:45:04.536Z,100974.66
2023-05-23T06:47:32.247Z,100980.00
2023-05-23T06:49:58.842Z,100980.59
2023-05-23T06:52:25.478Z,100984.03
2023-05-23T06:54:52.476Z,100986.50
2023-05-23T06:57:20.674Z,100988.72
2023-05-23T06:59:47.718Z,100988.97
2023-05-23T07:02:14.987Z,100995.59
2023-05-23T07:04:41.459Z,100999.16
2023-05-23T07:07:15.053Z,101004.63
2023-05-23T07:09:42.950Z,101010.38
2023-05-23T07:12:14.178Z,101010.94
2023-05-23T07:14:43.074Z,101022.22
2023-05-23T07:17:10.564Z,101006.88
2023-05-23T07:19:38.513Z,101009.56
2023-05-23T07:22:05.879Z,101016.63
2023-05-23T07:24:34.539Z,101021.94
2023-05-23T07:27:01.208Z,101021.69
2023-05-23T07:29:27.777Z,101024.72
2023-05-23T07:31:54.439Z,101028.50
2023-05-23T07:34:22.641Z,101023.16
2023-05-23T07:36:58.495Z,101025.56
2023-05-23T07:39:28.021Z,101026.16
2023-05-23T07:41:56.242Z,101040.31
2023-05-23T07:44:25.185Z,101024.22
2023-05-23T07:46:53.439Z,101038.41
2023-05-23T07:49:21.701Z,101038.88
2023-05-23T07:51:48.426Z,101042.72
2023-05-23T07:54:16.501Z,101053.38
2023-05-23T07:56:43.729Z,101055.59
2023-05-23T07:59:10.425Z,101068.72
2023-05-23T08:01:37.373Z,101078.59
2023-05-23T08:04:06.952Z,101057.41
2023-05-23T08:07:03.660Z,101069.72
2023-05-23T08:09:40.193Z,101072.72
2023-05-23T08:12:10.046Z,101085.53
2023-05-23T08:14:49.690Z,101087.97
2023-05-23T08:17:42.301Z,101093.16
2023-05-23T08:20:10.154Z,101086.91
2023-05-23T08:22:37.491Z,101096.22
2023-05-23T08:25:05.856Z,101114.19
2023-05-23T08:27:36.042Z,101115.03
2023-05-23T08:30:10.030Z,101112.31
2023-05-23T08:32:37.612Z,101126.47
2023-05-23T08:35:05.228Z,101124.81
2023-05-23T08:37:32.570Z,101134.91
2023-05-23T08:39:59.055Z,101130.53
2023-05-23T08:42:38.617Z,101130.81
2023-05-23T08:45:07.769Z,101138.44
2023-05-23T08:47:38.831Z,101146.38
2023-05-23T08:50:12.285Z,101154.25
2023-05-23T08:52:54.329Z,101161.59
2023-05-23T08:55:23.978Z,101158.09
2023-05-23T08:57:52.574Z,101157.25
2023-05-23T09:00:37.953Z,101170.88
2023-05-23T09:03:05.033Z,101173.84
2023-05-23T09:06:01.758Z,101185.00
2023-05-23T09:08:29.650Z,101176.84
2023-05-23T09:10:58.826Z,101196.75
2023-05-23T09:13:28.564Z,101209.25
2023-05-23T09:16:03.059Z,101203.81
2023-05-23T09:18:35.965Z,101199.19
2023-05-23T09:21:03.978Z,101196.97
2023-05-23T09:23:32.923Z,101202.97
2023-05-23T09:26:04.209Z,101207.28
2023-05-23T09:28:33.033Z,101207.88
2023-05-23T09:31:10.457Z,101215.22
2023-05-23T09:33:48.292Z,101217.13
2023-05-23T09:36:18.966Z,101219.06
2023-05-23T09:38:48.866Z,101230.50
2023-05-23T09:41:15.694Z,101226.72
2023-05-23T09:43:52.833Z,101222.06
2023-05-23T09:46:22.281Z,101232.16
2023-05-23T09:48:51.972Z,101235.13
2023-05-23T09:51:21.894Z,101239.72
2023-05-23T09:53:49.074Z,101254.41
2023-05-23T09:56:17.262Z,101251.31
2023-05-23T09:58:48.824Z,101257.06
2023-05-23T10:01:16.168Z,101252.16
2023-05-23T10:04:00.019Z,101265.78
2023-05-23T10:06:55.262Z,101256.81
2023-05-23T10:09:55.849Z,101262.84
2023-05-23T10:12:42.641Z,101272.91
2023-05-23T10:15:09.902Z,101273.75
2023-05-23T10:18:14.292Z,101276.50
2023-05-23T10:20:47.938Z,101266.94
2023-05-23T10:23:15.648Z,101290.09
2023-05-23T10:25:44.448Z,101279.19
2023-05-23T10:28:12.511Z,101280.00
2023-05-23T10:30:39.971Z,101285.44
2023-05-23T10:33:08.609Z,101283.03
2023-05-23T10:35:56.479Z,101287.94
2023-05-23T10:38:26.163Z,101288.47
2023-05-23T10:41:04.779Z,101298.00
2023-05-23T10:43:40.613Z,101310.50
2023-05-23T10:46:13.151Z,101316.22
2023-05-23T10:48:44.586Z,101316.50
2023-05-23T10:51:14.362Z,101310.31
2023-05-23T10:53:43.379Z,101314.66
2023-05-23T10:56:19.076Z,101321.75
2023-05-23T10:58:45.721Z,101331.53
2023-05-23T11:01:18.010Z,101325.25
2023-05-23T11:03:48.775Z,101329.56
2023-05-23T11:06:42.814Z,101334.38
2023-05-23T11:09:19.777Z,101338.13
2023-05-23T11:11:49.092Z,101342.00
2023-05-23T11:14:15.819Z,101342.84
2023-05-23T11:16:43.692Z,101347.22
2023-05-23T11:19:19.059Z,101354.81
2023-05-23T11:21:50.262Z,101344.50
2023-05-23T11:24:19.379Z,101348.84
2023-05-23T11:27:00.139Z,101354.31
2023-05-23T11:29:31.398Z,101359.97
2023-05-23T11:31:58.232Z,101373.66
2023-05-23T11:34:27.802Z,101363.09
2023-05-23T11:36:57.653Z,101353.16
2023-05-23T11:39:24.280Z,101358.63
2023-05-23T11:41:59.606Z,101356.22
2023-05-23T11:44:26.210Z,101364.44
2023-05-23T11:47:06.916Z,101377.25
2023-05-23T11:49:40.464Z,101376.69
2023-05-23T11:52:07.326Z,101371.50
2023-05-23T11:54:33.810Z,101376.97
2023-05-23T11:57:01.678Z,101381.34
2023-05-23T11:59:28.642Z,101388.41
2023-05-23T12:01:56.151Z,101377.50
2023-05-23T12:04:23.155Z,101377.53
2023-05-23T12:06:50.612Z,101378.63
2023-05-23T12:09:17.448Z,101380.53
2023-05-23T12:11:46.116Z,101392.78
2023-05-23T12:14:17.256Z,101394.44
2023-05-23T12:16:47.741Z,101399.34
2023-05-23T12:19:17.049Z,101388.16
2023-05-23T12:21:46.163Z,101399.34
2023-05-23T12:24:20.447Z,101391.69
2023-05-23T12:27:00.210Z,101395.47
2023-05-23T12:29:35.554Z,101404.19
2023-05-23T12:32:05.543Z,101385.63
2023-05-23T12:34:32.169Z,101401.94
2023-05-23T12:37:14.958Z,101396.19
2023-05-23T12:39:45.798Z,101384.94
2023-05-23T12:42:12.430Z,101400.78
2023-05-23T12:44:41.425Z,101409.41
2023-05-23T12:47:07.962Z,101393.28
2023-05-23T12:49:34.542Z,101393.00
2023-05-23T12:52:01.011Z,101407.19
2023-05-23T12:54:27.426Z,101412.75
2023-05-23T12:56:54.201Z,101407.00
2023-05-23T12:59:20.653Z,101412.75
2023-05-23T13:01:47.574Z,101423.63
2023-05-23T13:04:14.286Z,101403.84
2023-05-23T13:06:40.801Z,101404.47
2023-05-23T13:09:07.300Z,101392.22
2023-05-23T13:11:33.813Z,101406.75
2023-05-23T13:14:00.259Z,101409.03
2023-05-23T13:16:27.032Z,101403.81
2023-05-23T13:18:53.788Z,101409.41
2023-05-23T13:21:20.529Z,101424.38
2023-05-23T13:23:47.247Z,101414.31
2023-05-23T13:26:14.609Z,101410.44
2023-05-23T13:28:41.161Z,101410.78
2023-05-23T13:31:07.700Z,101425.09
2023-05-23T13:33:34.309Z,101424.09
2023-05-23T13:36:00.787Z,101421.88
2023-05-23T13:38:27.713Z,101446.09
2023-05-23T13:40:54.750Z,101435.44
2023-05-23T13:43:22.339Z,101430.69
2023-05-23T13:45:49.074Z,101431.09
2023-05-23T13:48:15.654Z,101430.13
2023-05-23T13:50:43.578Z,101443.75
2023-05-23T13:53:15.069Z,101436.63
2023-05-23T13:55:41.499Z,101434.13
2023-05-23T13:58:08.135Z,101439.19
2023-05-23T14:00:34.592Z,101444.56
2023-05-23T14:03:01.229Z,101434.38
2023-05-23T14:05:28.044Z,101444.78
2023-05-23T14:07:54.744Z,101449.25
2023-05-23T14:10:21.898Z,101454.97
2023-05-23T14:12:48.400Z,101456.78
2023-05-23T14:15:15.912Z,101455.53
2023-05-23T14:17:42.424Z,101466.13
2023-05-23T14:20:09.219Z,101461.13
2023-05-23T14:22:35.770Z,101453.25
2023-05-23T14:25:02.214Z,101458.72
2023-05-23T14:27:28.814Z,101471.03
2023-05-23T14:29:55.475Z,101467.50
2023-05-23T14:32:22.308Z,101461.75
2023-05-23T14:34:49.012Z,101459.97
2023-05-23T14:37:15.475Z,101463.75
2023-05-23T14:39:41.919Z,101470.41
2023-05-23T14:42:08.358Z,101466.50
2023-05-23T14:44:34.843Z,101469.97
2023-05-23T14:47:05.845Z,101476.31
2023-05-23T14:49:32.307Z,101479.56
2023-05-23T14:51:59.263Z,101479.38
2023-05-23T14:54:26.118Z,101478.97
2023-05-23T14:56:53.538Z,101478.38
2023-05-23T14:59:20.246Z,101475.53
2023-05-23T15:01:46.990Z,101487.03
2023-05-23T15:04:13.724Z,101484.91
2023-05-23T15:06:40.314Z,101488.00
2023-05-23T15:09:07.557Z,101489.25
2023-05-23T15:11:38.608Z,101489.97
2023-05-23T15:14:05.136Z,101492.88
2023-05-23T15:16:33.201Z,101492.03
2023-05-23T15:19:00.446Z,101497.75
2023-05-23T15:21:29.000Z,101496.03
2023-05-23T15:23:55.822Z,101468.16
2023-05-23T15:26:22.557Z,101482.53
2023-05-23T15:28:49.168Z,101478.63
2023-05-23T15:31:15.608Z,101483.94
2023-05-23T15:33:42.423Z,101471.09
2023-05-23T15:36:09.029Z,101480.53
2023-05-23T15:38:35.521Z,101494.13
2023-05-23T15:41:03.118Z,101490.69
2023-05-23T15:43:29.599Z,101496.34
2023-05-23T15:45:56.225Z,101482.06
2023-05-23T15:48:22.732Z,101488.78
2023-05-23T15:50:49.197Z,101492.88
2023-05-23T15:53:15.865Z,101491.50
2023-05-23T15:55:42.801Z,101498.31
2023-05-23T15:58:10.878Z,101493.25
2023-05-23T16:00:37.490Z,101496.06
2023-05-23T16:03:04.016Z,101506.25
2023-05-23T16:05:30.648Z,101503.75
2023-05-23T16:07:57.168Z,101500.66
2023-05-23T16:10:24.910Z,101493.41
2023-05-23T16:12:51.555Z,101502.19
2023-05-23T16:15:18.118Z,101506.53
2023-05-23T16:17:44.698Z,101494.34
2023-05-23T16:20:11.661Z,101501.38
2023-05-23T16:22:38.098Z,101501.53
2023-05-23T16:25:06.714Z,101501.72
2023-05-23T16:27:33.537Z,101498.84
2023-05-23T16:30:00.009Z,101507.84
2023-05-23T16:32:28.307Z,101506.06
2023-05-23T16:34:55.012Z,101503.41
2023-05-23T16:37:21.560Z,101500.19
2023-05-23T16:39:48.020Z,101496.75
2023-05-23T16:42:14.584Z,101501.09
2023-05-23T16:44:41.686Z,101497.19
2023-05-23T16:47:08.241Z,101495.28
2023-05-23T16:49:34.750Z,101520.44
2023-05-23T16:52:01.201Z,101502.47
2023-05-23T16:54:27.727Z,101517.13
2023-05-23T16:56:54.309Z,101508.97
2023-05-23T16:59:21.331Z,101491.31
2023-05-23T17:01:48.181Z,101499.91
2023-05-23T17:04:14.651Z,101490.75
2023-05-23T17:06:41.088Z,101500.31
2023-05-23T17:09:08.296Z,101502.66
2023-05-23T17:11:34.719Z,101499.16
2023-05-23T17:14:01.322Z,101491.75
2023-05-23T17:16:30.089Z,101498.41
2023-05-23T17:18:56.842Z,101499.50
2023-05-23T17:21:23.387Z,101500.69
2023-05-23T17:23:50.068Z,101492.19
2023-05-23T17:26:18.367Z,101493.56
2023-05-23T17:28:46.707Z,101498.28
2023-05-23T17:31:13.193Z,101493.09
2023-05-23T17:33:39.710Z,101498.81
2023-05-23T17:36:06.288Z,101507.31
2023-05-23T17:38:32.799Z,101511.72
2023-05-23T17:40:59.618Z,101505.72
2023-05-23T17:43:26.162Z,101515.59
2023-05-23T17:45:52.625Z,101512.31
2023-05-23T17:48:19.132Z,101511.75
2023-05-23T17:50:45.973Z,101516.66
2023-05-23T17:53:14.507Z,101518.31
2023-05-23T17:55:41.375Z,101519.16
2023-05-23T17:58:07.872Z,101537.69
2023-05-23T18:00:34.472Z,101535.78
2023-05-23T18:03:01.705Z,101525.94
2023-05-23T18:05:28.236Z,101531.63
2023-05-23T18:07:54.951Z,101530.81
2023-05-23T18:10:21.916Z,101522.91
2023-05-23T18:12:48.391Z,101533.53
2023-05-23T18:15:14.888Z,101539.78
2023-05-23T18:17:41.815Z,101536.25
2023-05-23T18:20:08.620Z,101540.81
2023-05-23T18:22:35.308Z,101551.44
2023-05-23T18:25:01.816Z,101537.00
2023-05-23T18:27:28.309Z,101551.69
2023-05-23T18:29:55.002Z,101558.72
2023-05-23T18:32:21.800Z,101555.66
2023-05-23T18:34:48.371Z,101550.53
2023-05-23T18:37:14.966Z,101560.81
2023-05-23T18:39:41.370Z,101570.31
2023-05-23T18:42:07.955Z,101567.59
2023-05-23T18:44:35.135Z,101568.66
2023-05-23T18:47:02.673Z,101575.16
2023-05-23T18:49:29.284Z,101580.88
2023-05-23T18:51:55.932Z,101583.66
2023-05-23T18:54:22.746Z,101578.94
2023-05-23T18:56:49.620Z,101578.34
2023-05-23T18:59:16.903Z,101583.25
2023-05-23T19:01:43.513Z,101580.13
2023-05-23T19:04:10.182Z,101592.34
2023-05-23T19:06:36.838Z,101591.81
2023-05-23T19:09:06.695Z,101599.34
2023-05-23T19:11:33.180Z,101600.72
2023-05-23T19:13:59.641Z,101609.81
2023-05-23T19:16:26.201Z,101604.28
2023-05-23T19:18:52.735Z,101612.59
2023-05-23T19:21:19.234Z,101618.19
2023-05-23T19:23:45.999Z,101619.59
2023-05-23T19:26:13.548Z,101626.56
2023-05-23T19:28:40.470Z,101620.97
2023-05-23T19:31:07.867Z,101629.88
2023-05-23T19:33:34.398Z,101628.13
2023-05-23T19:36:01.340Z,101629.41
2023-05-23T19:38:27.835Z,101630.84
2023-05-23T19:40:54.504Z,101629.53
2023-05-23T19:43:21.088Z,101634.13
2023-05-23T19:45:48.006Z,101637.03
2023-05-23T19:48:14.646Z,101634.38
2023-05-23T19:50:43.474Z,101641.09
2023-05-23T19:53:10.305Z,101643.88
2023-05-23T19:55:36.762Z,101642.63
2023-05-23T19:58:03.300Z,101645.59
2023-05-23T20:00:29.798Z,101647.81
2023-05-23T20:02:56.851Z,101650.59
2023-05-23T20:05:23.624Z,101649.13
2023-05-23T20:07:50.146Z,101651.75
2023-05-23T20:10:16.710Z,101650.38
2023-05-23T20:12:43.162Z,101660.69
2023-05-23T20:15:09.955Z,101662.72
2023-05-23T20:17:36.441Z,101657.97
2023-05-23T20:20:04.102Z,101659.13
2023-05-23T20:22:30.595Z,101672.84
2023-05-23T20:24:57.025Z,101661.84
2023-05-23T20:27:23.647Z,101662.72
2023-05-23T20:29:51.126Z,101658.47
2023-05-23T20:32:17.573Z,101661.59
2023-05-23T20:34:44.172Z,101658.31
2023-05-23T20:37:13.702Z,101674.84
2023-05-23T20:39:43.761Z,101656.41
2023-05-23T20:42:10.404Z,101669.81
2023-05-23T20:44:38.093Z,101675.50
2023-05-23T20:47:06.233Z,101680.53
2023-05-23T20:49:37.379Z,101677.13
2023-05-23T20:52:05.435Z,101671.78
2023-05-23T20:54:35.150Z,101675.75
2023-05-23T20:57:02.555Z,101677.66
2023-05-23T20:59:30.434Z,101673.34
2023-05-23T21:01:57.552Z,101682.56
2023-05-23T21:04:24.302Z,101679.25
2023-05-23T21:06:50.997Z,101680.56
2023-05-23T21:09:17.590Z,101682.41
2023-05-23T21:11:44.721Z,101671.84
2023-05-23T21:14:11.232Z,101669.63
2023-05-23T21:16:37.977Z,101675.72
2023-05-23T21:19:04.582Z,101678.84
2023-05-23T21:21:31.101Z,101682.72
2023-05-23T21:23:57.485Z,101687.47
2023-05-23T21:26:24.191Z,101681.38
2023-05-23T21:28:50.646Z,101682.75
2023-05-23T21:31:24.084Z,101687.19
2023-05-23T21:33:56.403Z,101689.28
2023-05-23T21:36:22.954Z,101689.81
2023-05-23T21:38:49.407Z,101692.78
2023-05-23T21:41:15.862Z,101705.06
2023-05-23T21:43:43.033Z,101696.09
2023-05-23T21:46:09.561Z,101701.06
2023-05-23T21:48:36.098Z,101701.28
2023-05-23T21:51:02.703Z,101701.09
2023-05-23T21:53:29.416Z,101707.03
2023-05-23T21:55:55.908Z,101704.09
2023-05-23T21:58:22.392Z,101704.78
2023-05-23T22:00:49.181Z,101697.59
2023-05-23T22:03:15.932Z,101699.28
2023-05-23T22:05:42.563Z,101697.72
2023-05-23T22:08:13.202Z,101699.03
2023-05-23T22:10:40.978Z,101699.75
2023-05-23T22:13:09.485Z,101695.81
2023-05-23T22:15:36.846Z,101686.66
2023-05-23T22:18:07.428Z,101694.94
2023-05-23T22:20:39.004Z,101691.13
2023-05-23T22:23:06.192Z,101690.78
2023-05-23T22:25:35.053Z,101687.16
2023-05-23T22:28:01.796Z,101682.88
2023-05-23T22:30:28.499Z,101673.94
2023-05-23T22:32:57.718Z,101677.00
2023-05-23T22:35:24.665Z,101678.44
2023-05-23T22:37:51.067Z,101670.31
2023-05-23T22:40:17.739Z,101674.41
2023-05-23T22:42:44.194Z,101674.53
2023-05-23T22:45:10.927Z,101668.28
2023-05-23T22:47:37.567Z,101668.53
2023-05-23T22:50:04.705Z,101672.75
2023-05-23T22:52:31.421Z,101673.09
2023-05-23T22:54:57.936Z,101668.66
2023-05-23T22:57:24.428Z,101679.34
2023-05-23T22:59:50.944Z,101677.09
2023-05-23T23:02:17.445Z,101666.13
2023-05-23T23:04:44.341Z,101677.56
2023-05-23T23:07:11.350Z,101676.00
2023-05-23T23:09:37.821Z,101677.53
2023-05-23T23:12:04.397Z,101681.63
2023-05-23T23:14:30.860Z,101683.06
2023-05-23T23:16:58.163Z,101680.59
2023-05-23T23:19:25.127Z,101684.81
2023-05-23T23:21:51.793Z,101682.56
2023-05-23T23:24:18.313Z,101686.50
2023-05-23T23:26:44.816Z,101684.59
2023-05-23T23:29:11.251Z,101688.53
2023-05-23T23:31:37.734Z,101683.94
2023-05-23T23:34:04.209Z,101686.25
2023-05-23T23:36:30.834Z,101692.88
2023-05-23T23:38:57.362Z,101687.06
2023-05-23T23:41:23.850Z,101681.28
2023-05-23T23:43:50.479Z,101693.63
2023-05-23T23:46:18.665Z,101696.28
2023-05-23T23:48:45.242Z,101695.97
2023-05-23T23:51:12.759Z,101689.63
2023-05-23T23:53:39.639Z,101689.25
2023-05-23T23:56:06.129Z,101695.03
2023-05-23T23:58:32.647Z,101686.91
